sensor_id;sensor_type;location;lat;lon;timestamp;temperature;humidity
20070;DHT22;10195;50.868;4.382;2022-09-12T00:01:09;17.00;99.90
20070;DHT22;10195;50.868;4.382;2022-09-12T00:03:36;17.00;99.90
20070;DHT22;10195;50.868;4.382;2022-09-12T00:06:17;17.00;99.90
20070;DHT22;10195;50.868;4.382;2022-09-12T00:08:43;17.10;99.90
20070;DHT22;10195;50.868;4.382;2022-09-12T00:11:10;17.10;99.90
20070;DHT22;10195;50.868;4.382;2022-09-12T00:13:37;17.10;99.90
20070;DHT22;10195;50.868;4.382;2022-09-12T00:16:04;17.00;99.90
20070;DHT22;10195;50.868;4.382;2022-09-12T00:18:30;17.00;99.90
20070;DHT22;10195;50.868;4.382;2022-09-12T00:20:57;16.90;99.90
20070;DHT22;10195;50.868;4.382;2022-09-12T00:23:25;16.90;99.90
20070;DHT22;10195;50.868;4.382;2022-09-12T00:25:51;16.80;99.90
20070;DHT22;10195;50.868;4.382;2022-09-12T00:28:17;17.00;99.90
20070;DHT22;10195;50.868;4.382;2022-09-12T00:30:46;17.00;99.90
20070;DHT22;10195;50.868;4.382;2022-09-12T00:33:14;17.00;99.90
20070;DHT22;10195;50.868;4.382;2022-09-12T00:35:46;17.00;99.90
20070;DHT22;10195;50.868;4.382;2022-09-12T00:38:12;17.10;99.90
20070;DHT22;10195;50.868;4.382;2022-09-12T00:40:39;17.00;99.90
20070;DHT22;10195;50.868;4.382;2022-09-12T00:43:05;17.10;99.90
20070;DHT22;10195;50.868;4.382;2022-09-12T00:45:31;17.00;99.90
20070;DHT22;10195;50.868;4.382;2022-09-12T00:48:01;17.00;99.90
20070;DHT22;10195;50.868;4.382;2022-09-12T00:50:29;17.00;99.90
20070;DHT22;10195;50.868;4.382;2022-09-12T00:53:04;16.90;99.90
20070;DHT22;10195;50.868;4.382;2022-09-12T00:55:46;16.90;99.90
20070;DHT22;10195;50.868;4.382;2022-09-12T00:58:23;17.00;99.90
20070;DHT22;10195;50.868;4.382;2022-09-12T01:00:49;16.90;99.90
20070;DHT22;10195;50.868;4.382;2022-09-12T01:03:19;16.80;99.90
20070;DHT22;10195;50.868;4.382;2022-09-12T01:06:11;16.90;99.90
20070;DHT22;10195;50.868;4.382;2022-09-12T01:08:39;16.90;99.90
20070;DHT22;10195;50.868;4.382;2022-09-12T01:11:08;16.80;99.90
20070;DHT22;10195;50.868;4.382;2022-09-12T01:13:34;16.90;99.90
20070;DHT22;10195;50.868;4.382;2022-09-12T01:16:04;16.70;99.90
20070;DHT22;10195;50.868;4.382;2022-09-12T01:24:32;16.80;99.90
20070;DHT22;10195;50.868;4.382;2022-09-12T01:32:46;16.70;99.90
20070;DHT22;10195;50.868;4.382;2022-09-12T01:35:30;16.70;99.90
20070;DHT22;10195;50.868;4.382;2022-09-12T01:38:38;16.70;99.90
20070;DHT22;10195;50.868;4.382;2022-09-12T01:41:26;16.70;99.90
20070;DHT22;10195;50.868;4.382;2022-09-12T01:44:12;16.70;99.90
20070;DHT22;10195;50.868;4.382;2022-09-12T01:46:46;16.60;99.90
20070;DHT22;10195;50.868;4.382;2022-09-12T01:49:26;16.60;99.90
20070;DHT22;10195;50.868;4.382;2022-09-12T01:54:48;16.70;99.90
20070;DHT22;10195;50.868;4.382;2022-09-12T01:57:23;16.70;99.90
20070;DHT22;10195;50.868;4.382;2022-09-12T01:59:53;16.70;99.90
20070;DHT22;10195;50.868;4.382;2022-09-12T02:02:32;16.70;99.90
20070;DHT22;10195;50.868;4.382;2022-09-12T02:05:07;16.70;99.90
20070;DHT22;10195;50.868;4.382;2022-09-12T02:07:44;16.70;99.90
20070;DHT22;10195;50.868;4.382;2022-09-12T02:10:12;16.70;99.90
20070;DHT22;10195;50.868;4.382;2022-09-12T02:12:46;16.80;99.90
20070;DHT22;10195;50.868;4.382;2022-09-12T02:15:16;16.80;99.90
20070;DHT22;10195;50.868;4.382;2022-09-12T02:17:44;16.80;99.90
20070;DHT22;10195;50.868;4.382;2022-09-12T02:22:41;16.70;99.90
20070;DHT22;10195;50.868;4.382;2022-09-12T02:25:09;16.70;99.90
20070;DHT22;10195;50.868;4.382;2022-09-12T02:27:44;16.70;99.90
20070;DHT22;10195;50.868;4.382;2022-09-12T02:30:11;16.70;99.90
20070;DHT22;10195;50.868;4.382;2022-09-12T02:38:13;16.60;99.90
20070;DHT22;10195;50.868;4.382;2022-09-12T02:40:40;16.50;99.90
20070;DHT22;10195;50.868;4.382;2022-09-12T02:43:06;16.50;99.90
20070;DHT22;10195;50.868;4.382;2022-09-12T02:45:32;16.40;99.90
20070;DHT22;10195;50.868;4.382;2022-09-12T02:48:22;16.50;99.90
20070;DHT22;10195;50.868;4.382;2022-09-12T02:50:50;16.50;99.90
20070;DHT22;10195;50.868;4.382;2022-09-12T02:53:17;16.40;99.90
20070;DHT22;10195;50.868;4.382;2022-09-12T02:55:43;16.40;99.90
20070;DHT22;10195;50.868;4.382;2022-09-12T02:58:14;16.40;99.90
20070;DHT22;10195;50.868;4.382;2022-09-12T03:06:01;16.30;99.90
20070;DHT22;10195;50.868;4.382;2022-09-12T03:14:54;16.30;99.90
20070;DHT22;10195;50.868;4.382;2022-09-12T03:17:29;16.30;99.90
20070;DHT22;10195;50.868;4.382;2022-09-12T03:20:15;16.20;99.90
20070;DHT22;10195;50.868;4.382;2022-09-12T03:22:53;16.20;99.90
20070;DHT22;10195;50.868;4.382;2022-09-12T03:25:29;16.10;99.90
20070;DHT22;10195;50.868;4.382;2022-09-12T03:28:08;16.10;99.90
20070;DHT22;10195;50.868;4.382;2022-09-12T03:30:38;16.10;99.90
20070;DHT22;10195;50.868;4.382;2022-09-12T03:33:03;16.10;99.90
20070;DHT22;10195;50.868;4.382;2022-09-12T03:35:29;16.20;99.90
20070;DHT22;10195;50.868;4.382;2022-09-12T03:37:55;16.10;99.90
20070;DHT22;10195;50.868;4.382;2022-09-12T03:40:21;16.20;99.90
20070;DHT22;10195;50.868;4.382;2022-09-12T03:42:46;16.20;99.90
20070;DHT22;10195;50.868;4.382;2022-09-12T03:45:12;16.20;99.90
20070;DHT22;10195;50.868;4.382;2022-09-12T03:47:39;16.20;99.90
20070;DHT22;10195;50.868;4.382;2022-09-12T03:50:05;16.10;99.90
20070;DHT22;10195;50.868;4.382;2022-09-12T03:52:31;15.80;99.90
20070;DHT22;10195;50.868;4.382;2022-09-12T03:54:56;15.80;99.90
20070;DHT22;10195;50.868;4.382;2022-09-12T03:57:22;15.80;99.90
20070;DHT22;10195;50.868;4.382;2022-09-12T03:59:48;15.90;99.90
20070;DHT22;10195;50.868;4.382;2022-09-12T04:02:17;15.90;99.90
20070;DHT22;10195;50.868;4.382;2022-09-12T04:04:43;16.00;99.90
20070;DHT22;10195;50.868;4.382;2022-09-12T04:07:09;16.00;99.90
20070;DHT22;10195;50.868;4.382;2022-09-12T04:09:35;16.10;99.90
20070;DHT22;10195;50.868;4.382;2022-09-12T04:12:01;16.10;99.90
20070;DHT22;10195;50.868;4.382;2022-09-12T04:14:26;16.10;99.90
20070;DHT22;10195;50.868;4.382;2022-09-12T04:16:52;16.10;99.90
20070;DHT22;10195;50.868;4.382;2022-09-12T04:19:18;16.10;99.90
20070;DHT22;10195;50.868;4.382;2022-09-12T04:21:43;16.20;99.90
20070;DHT22;10195;50.868;4.382;2022-09-12T04:24:09;16.00;99.90
20070;DHT22;10195;50.868;4.382;2022-09-12T04:26:35;15.90;99.90
20070;DHT22;10195;50.868;4.382;2022-09-12T04:29:00;15.90;99.90
20070;DHT22;10195;50.868;4.382;2022-09-12T04:31:26;15.90;99.90
20070;DHT22;10195;50.868;4.382;2022-09-12T04:33:56;15.90;99.90
20070;DHT22;10195;50.868;4.382;2022-09-12T04:36:22;15.90;99.90
20070;DHT22;10195;50.868;4.382;2022-09-12T04:38:48;15.90;99.90
20070;DHT22;10195;50.868;4.382;2022-09-12T04:43:43;15.90;99.90
20070;DHT22;10195;50.868;4.382;2022-09-12T04:46:11;15.70;99.90
20070;DHT22;10195;50.868;4.382;2022-09-12T04:48:37;15.70;99.90
20070;DHT22;10195;50.868;4.382;2022-09-12T04:51:27;15.80;99.90
20070;DHT22;10195;50.868;4.382;2022-09-12T04:53:58;15.90;99.90
20070;DHT22;10195;50.868;4.382;2022-09-12T04:56:25;15.90;99.90
20070;DHT22;10195;50.868;4.382;2022-09-12T04:58:51;16.00;99.90
20070;DHT22;10195;50.868;4.382;2022-09-12T05:01:19;16.10;99.90
20070;DHT22;10195;50.868;4.382;2022-09-12T05:03:47;16.10;99.90
20070;DHT22;10195;50.868;4.382;2022-09-12T05:06:18;16.10;99.90
20070;DHT22;10195;50.868;4.382;2022-09-12T05:08:45;16.10;99.90
20070;DHT22;10195;50.868;4.382;2022-09-12T05:11:13;16.00;99.90
20070;DHT22;10195;50.868;4.382;2022-09-12T05:13:39;16.10;99.90
20070;DHT22;10195;50.868;4.382;2022-09-12T05:16:06;16.10;99.90
20070;DHT22;10195;50.868;4.382;2022-09-12T05:18:34;16.00;99.90
20070;DHT22;10195;50.868;4.382;2022-09-12T05:21:01;15.90;99.90
20070;DHT22;10195;50.868;4.382;2022-09-12T05:23:28;16.00;99.90
20070;DHT22;10195;50.868;4.382;2022-09-12T05:25:55;16.00;99.90
20070;DHT22;10195;50.868;4.382;2022-09-12T05:28:22;16.00;99.90
20070;DHT22;10195;50.868;4.382;2022-09-12T05:31:32;16.00;99.90
20070;DHT22;10195;50.868;4.382;2022-09-12T05:33:52;16.00;99.90
20070;DHT22;10195;50.868;4.382;2022-09-12T05:36:27;16.00;99.90
20070;DHT22;10195;50.868;4.382;2022-09-12T05:38:54;16.00;99.90
20070;DHT22;10195;50.868;4.382;2022-09-12T05:41:24;16.00;99.90
20070;DHT22;10195;50.868;4.382;2022-09-12T05:43:55;16.10;99.90
20070;DHT22;10195;50.868;4.382;2022-09-12T05:46:23;16.20;99.90
20070;DHT22;10195;50.868;4.382;2022-09-12T05:48:49;16.20;99.90
20070;DHT22;10195;50.868;4.382;2022-09-12T05:51:20;16.30;99.90
20070;DHT22;10195;50.868;4.382;2022-09-12T05:53:48;16.30;99.90
20070;DHT22;10195;50.868;4.382;2022-09-12T05:56:16;16.20;99.90
20070;DHT22;10195;50.868;4.382;2022-09-12T05:58:45;16.20;99.90
20070;DHT22;10195;50.868;4.382;2022-09-12T06:01:16;16.20;99.90
20070;DHT22;10195;50.868;4.382;2022-09-12T06:03:48;16.20;99.90
20070;DHT22;10195;50.868;4.382;2022-09-12T06:06:17;16.20;99.90
20070;DHT22;10195;50.868;4.382;2022-09-12T06:08:45;16.20;99.90
20070;DHT22;10195;50.868;4.382;2022-09-12T06:11:13;16.20;99.90
20070;DHT22;10195;50.868;4.382;2022-09-12T06:13:40;16.10;99.90
20070;DHT22;10195;50.868;4.382;2022-09-12T06:18:37;16.30;99.90
20070;DHT22;10195;50.868;4.382;2022-09-12T06:21:04;16.50;99.90
20070;DHT22;10195;50.868;4.382;2022-09-12T06:23:29;16.50;99.90
20070;DHT22;10195;50.868;4.382;2022-09-12T06:25:55;16.60;99.90
20070;DHT22;10195;50.868;4.382;2022-09-12T06:28:21;16.70;99.90
20070;DHT22;10195;50.868;4.382;2022-09-12T06:30:47;16.80;99.90
20070;DHT22;10195;50.868;4.382;2022-09-12T06:33:13;16.80;99.90
20070;DHT22;10195;50.868;4.382;2022-09-12T06:35:39;16.80;99.90
20070;DHT22;10195;50.868;4.382;2022-09-12T06:38:05;16.90;99.90
20070;DHT22;10195;50.868;4.382;2022-09-12T06:40:31;17.10;99.90
20070;DHT22;10195;50.868;4.382;2022-09-12T06:42:57;17.70;99.90
20070;DHT22;10195;50.868;4.382;2022-09-12T06:45:23;18.60;99.90
20070;DHT22;10195;50.868;4.382;2022-09-12T06:47:50;19.40;99.90
20070;DHT22;10195;50.868;4.382;2022-09-12T06:50:16;20.40;99.90
20070;DHT22;10195;50.868;4.382;2022-09-12T06:52:41;21.50;99.90
20070;DHT22;10195;50.868;4.382;2022-09-12T06:55:09;22.20;99.90
20070;DHT22;10195;50.868;4.382;2022-09-12T06:57:34;22.70;99.90
20070;DHT22;10195;50.868;4.382;2022-09-12T07:00:06;23.40;99.90
20070;DHT22;10195;50.868;4.382;2022-09-12T07:02:32;24.20;99.90
20070;DHT22;10195;50.868;4.382;2022-09-12T07:04:57;25.20;99.90
20070;DHT22;10195;50.868;4.382;2022-09-12T07:07:23;25.60;99.90
20070;DHT22;10195;50.868;4.382;2022-09-12T07:09:48;25.70;99.90
20070;DHT22;10195;50.868;4.382;2022-09-12T07:12:14;26.00;99.90
20070;DHT22;10195;50.868;4.382;2022-09-12T07:14:40;26.10;99.90
20070;DHT22;10195;50.868;4.382;2022-09-12T07:17:06;26.50;99.90
20070;DHT22;10195;50.868;4.382;2022-09-12T07:19:33;27.10;99.90
20070;DHT22;10195;50.868;4.382;2022-09-12T07:21:59;27.60;99.90
20070;DHT22;10195;50.868;4.382;2022-09-12T07:24:25;27.90;99.90
20070;DHT22;10195;50.868;4.382;2022-09-12T07:26:50;27.50;99.90
20070;DHT22;10195;50.868;4.382;2022-09-12T07:29:16;27.70;99.90
20070;DHT22;10195;50.868;4.382;2022-09-12T07:31:42;27.80;99.90
20070;DHT22;10195;50.868;4.382;2022-09-12T07:34:07;27.60;99.90
20070;DHT22;10195;50.868;4.382;2022-09-12T07:36:33;27.20;99.90
20070;DHT22;10195;50.868;4.382;2022-09-12T07:38:59;27.90;99.90
20070;DHT22;10195;50.868;4.382;2022-09-12T07:41:27;28.20;99.90
20070;DHT22;10195;50.868;4.382;2022-09-12T07:43:55;28.20;99.90
20070;DHT22;10195;50.868;4.382;2022-09-12T07:46:21;28.20;99.90
20070;DHT22;10195;50.868;4.382;2022-09-12T07:48:51;27.60;99.90
20070;DHT22;10195;50.868;4.382;2022-09-12T07:51:17;27.00;99.90
20070;DHT22;10195;50.868;4.382;2022-09-12T07:53:43;26.40;99.90
20070;DHT22;10195;50.868;4.382;2022-09-12T07:56:10;26.90;99.90
20070;DHT22;10195;50.868;4.382;2022-09-12T07:58:37;27.60;99.90
20070;DHT22;10195;50.868;4.382;2022-09-12T08:01:09;26.80;99.90
20070;DHT22;10195;50.868;4.382;2022-09-12T08:03:35;26.70;99.90
20070;DHT22;10195;50.868;4.382;2022-09-12T08:09:23;25.90;99.90
20070;DHT22;10195;50.868;4.382;2022-09-12T08:11:48;26.20;99.90
20070;DHT22;10195;50.868;4.382;2022-09-12T08:14:14;26.60;99.90
20070;DHT22;10195;50.868;4.382;2022-09-12T08:16:42;26.60;99.90
20070;DHT22;10195;50.868;4.382;2022-09-12T08:19:08;27.00;99.90
20070;DHT22;10195;50.868;4.382;2022-09-12T08:21:34;27.60;99.90
20070;DHT22;10195;50.868;4.382;2022-09-12T08:24:02;28.20;99.90
20070;DHT22;10195;50.868;4.382;2022-09-12T08:26:29;28.70;99.90
20070;DHT22;10195;50.868;4.382;2022-09-12T08:28:55;28.60;99.90
20070;DHT22;10195;50.868;4.382;2022-09-12T08:31:22;28.40;99.90
20070;DHT22;10195;50.868;4.382;2022-09-12T08:33:48;27.70;99.90
20070;DHT22;10195;50.868;4.382;2022-09-12T08:36:17;28.10;99.90
20070;DHT22;10195;50.868;4.382;2022-09-12T08:38:46;27.60;99.90
20070;DHT22;10195;50.868;4.382;2022-09-12T08:46:30;26.80;99.90
20070;DHT22;10195;50.868;4.382;2022-09-12T08:48:58;26.70;99.90
20070;DHT22;10195;50.868;4.382;2022-09-12T08:51:26;27.00;99.90
20070;DHT22;10195;50.868;4.382;2022-09-12T08:53:55;26.50;99.90
20070;DHT22;10195;50.868;4.382;2022-09-12T08:56:22;27.60;99.90
20070;DHT22;10195;50.868;4.382;2022-09-12T08:58:49;28.20;99.90
20070;DHT22;10195;50.868;4.382;2022-09-12T09:01:31;29.30;99.90
20070;DHT22;10195;50.868;4.382;2022-09-12T09:20:38;29.60;99.90
20070;DHT22;10195;50.868;4.382;2022-09-12T09:23:41;28.60;99.90
20070;DHT22;10195;50.868;4.382;2022-09-12T09:26:19;28.60;99.90
20070;DHT22;10195;50.868;4.382;2022-09-12T09:28:57;28.70;99.90
20070;DHT22;10195;50.868;4.382;2022-09-12T09:31:25;29.00;99.90
20070;DHT22;10195;50.868;4.382;2022-09-12T09:33:55;28.50;99.90
20070;DHT22;10195;50.868;4.382;2022-09-12T09:39:16;30.10;99.90
20070;DHT22;10195;50.868;4.382;2022-09-12T09:42:10;30.60;99.90
20070;DHT22;10195;50.868;4.382;2022-09-12T09:44:37;31.50;99.90
20070;DHT22;10195;50.868;4.382;2022-09-12T09:47:03;30.30;99.90
20070;DHT22;10195;50.868;4.382;2022-09-12T09:49:32;29.90;99.90
20070;DHT22;10195;50.868;4.382;2022-09-12T09:51:58;28.50;99.90
20070;DHT22;10195;50.868;4.382;2022-09-12T09:54:46;29.10;99.90
20070;DHT22;10195;50.868;4.382;2022-09-12T10:03:18;31.20;99.90
20070;DHT22;10195;50.868;4.382;2022-09-12T10:05:52;31.20;99.90
20070;DHT22;10195;50.868;4.382;2022-09-12T10:08:24;31.70;99.90
20070;DHT22;10195;50.868;4.382;2022-09-12T10:10:59;31.10;99.90
20070;DHT22;10195;50.868;4.382;2022-09-12T10:16:21;29.90;99.90
20070;DHT22;10195;50.868;4.382;2022-09-12T10:18:49;29.70;99.90
20070;DHT22;10195;50.868;4.382;2022-09-12T10:21:29;29.50;99.90
20070;DHT22;10195;50.868;4.382;2022-09-12T10:24:03;29.60;99.90
20070;DHT22;10195;50.868;4.382;2022-09-12T10:26:35;29.20;99.90
20070;DHT22;10195;50.868;4.382;2022-09-12T10:29:11;28.90;99.90
20070;DHT22;10195;50.868;4.382;2022-09-12T10:31:47;28.60;99.90
20070;DHT22;10195;50.868;4.382;2022-09-12T10:34:22;28.20;99.90
20070;DHT22;10195;50.868;4.382;2022-09-12T10:36:51;27.40;99.90
20070;DHT22;10195;50.868;4.382;2022-09-12T10:39:19;26.90;99.90
20070;DHT22;10195;50.868;4.382;2022-09-12T10:41:45;26.90;99.90
20070;DHT22;10195;50.868;4.382;2022-09-12T10:44:17;27.00;99.90
20070;DHT22;10195;50.868;4.382;2022-09-12T10:46:42;26.60;99.90
20070;DHT22;10195;50.868;4.382;2022-09-12T10:49:29;25.90;99.90
20070;DHT22;10195;50.868;4.382;2022-09-12T10:51:57;26.00;99.90
20070;DHT22;10195;50.868;4.382;2022-09-12T10:54:39;26.00;99.90
20070;DHT22;10195;50.868;4.382;2022-09-12T11:00:02;26.10;99.90
20070;DHT22;10195;50.868;4.382;2022-09-12T11:02:50;26.30;99.90
20070;DHT22;10195;50.868;4.382;2022-09-12T11:05:44;26.40;99.90
20070;DHT22;10195;50.868;4.382;2022-09-12T11:14:40;26.20;99.90
20070;DHT22;10195;50.868;4.382;2022-09-12T11:25:18;26.10;99.90
20070;DHT22;10195;50.868;4.382;2022-09-12T11:27:59;26.10;99.90
20070;DHT22;10195;50.868;4.382;2022-09-12T11:30:32;26.10;99.90
20070;DHT22;10195;50.868;4.382;2022-09-12T11:35:50;26.60;99.90
20070;DHT22;10195;50.868;4.382;2022-09-12T11:41:06;26.40;99.90
20070;DHT22;10195;50.868;4.382;2022-09-12T11:43:47;26.10;99.90
20070;DHT22;10195;50.868;4.382;2022-09-12T11:49:11;26.00;99.90
20070;DHT22;10195;50.868;4.382;2022-09-12T11:54:52;26.00;99.90
20070;DHT22;10195;50.868;4.382;2022-09-12T11:57:28;26.30;99.90
20070;DHT22;10195;50.868;4.382;2022-09-12T12:00:04;26.60;99.90
20070;DHT22;10195;50.868;4.382;2022-09-12T12:05:44;26.90;99.90
20070;DHT22;10195;50.868;4.382;2022-09-12T12:08:14;26.50;99.90
20070;DHT22;10195;50.868;4.382;2022-09-12T12:11:00;26.30;99.90
20070;DHT22;10195;50.868;4.382;2022-09-12T12:13:45;26.30;99.90
20070;DHT22;10195;50.868;4.382;2022-09-12T12:16:24;26.60;99.90
20070;DHT22;10195;50.868;4.382;2022-09-12T12:18:55;26.90;99.90
20070;DHT22;10195;50.868;4.382;2022-09-12T12:34:32;26.90;99.90
20070;DHT22;10195;50.868;4.382;2022-09-12T12:44:58;26.50;99.90
20070;DHT22;10195;50.868;4.382;2022-09-12T12:52:23;26.80;99.90
20070;DHT22;10195;50.868;4.382;2022-09-12T12:54:56;26.90;99.90
20070;DHT22;10195;50.868;4.382;2022-09-12T12:59:55;26.90;99.90
20070;DHT22;10195;50.868;4.382;2022-09-12T13:02:26;26.70;99.90
20070;DHT22;10195;50.868;4.382;2022-09-12T13:04:55;26.60;99.90
20070;DHT22;10195;50.868;4.382;2022-09-12T13:07:26;26.60;99.90
20070;DHT22;10195;50.868;4.382;2022-09-12T13:09:54;26.50;99.90
20070;DHT22;10195;50.868;4.382;2022-09-12T13:12:28;26.50;99.90
20070;DHT22;10195;50.868;4.382;2022-09-12T13:14:59;26.60;99.90
20070;DHT22;10195;50.868;4.382;2022-09-12T13:20:00;26.80;99.90
20070;DHT22;10195;50.868;4.382;2022-09-12T13:22:39;26.90;99.90
20070;DHT22;10195;50.868;4.382;2022-09-12T13:25:25;27.10;99.90
20070;DHT22;10195;50.868;4.382;2022-09-12T13:27:58;27.20;99.90
20070;DHT22;10195;50.868;4.382;2022-09-12T13:30:24;27.30;99.90
20070;DHT22;10195;50.868;4.382;2022-09-12T13:32:51;27.10;99.90
20070;DHT22;10195;50.868;4.382;2022-09-12T13:35:38;26.90;99.90
20070;DHT22;10195;50.868;4.382;2022-09-12T13:38:40;27.00;99.90
20070;DHT22;10195;50.868;4.382;2022-09-12T13:41:24;27.20;99.90
20070;DHT22;10195;50.868;4.382;2022-09-12T13:43:55;27.10;99.90
20070;DHT22;10195;50.868;4.382;2022-09-12T13:46:31;27.10;99.90
20070;DHT22;10195;50.868;4.382;2022-09-12T13:49:00;26.70;99.90
20070;DHT22;10195;50.868;4.382;2022-09-12T13:51:30;26.60;99.90
20070;DHT22;10195;50.868;4.382;2022-09-12T13:54:00;26.60;99.90
20070;DHT22;10195;50.868;4.382;2022-09-12T13:56:26;26.80;99.90
20070;DHT22;10195;50.868;4.382;2022-09-12T13:58:57;26.70;99.90
20070;DHT22;10195;50.868;4.382;2022-09-12T14:01:42;26.50;99.90
20070;DHT22;10195;50.868;4.382;2022-09-12T14:04:23;26.60;99.90
20070;DHT22;10195;50.868;4.382;2022-09-12T14:07:16;26.50;99.90
20070;DHT22;10195;50.868;4.382;2022-09-12T14:09:54;26.50;99.90
20070;DHT22;10195;50.868;4.382;2022-09-12T14:12:30;26.30;99.90
20070;DHT22;10195;50.868;4.382;2022-09-12T14:14:57;26.40;99.90
20070;DHT22;10195;50.868;4.382;2022-09-12T14:17:34;26.50;99.90
20070;DHT22;10195;50.868;4.382;2022-09-12T14:20:04;26.60;99.90
20070;DHT22;10195;50.868;4.382;2022-09-12T14:22:31;26.40;99.90
20070;DHT22;10195;50.868;4.382;2022-09-12T14:24:58;26.40;99.90
20070;DHT22;10195;50.868;4.382;2022-09-12T14:27:34;26.50;99.90
20070;DHT22;10195;50.868;4.382;2022-09-12T14:30:18;26.60;99.90
20070;DHT22;10195;50.868;4.382;2022-09-12T14:35:27;27.10;99.90
20070;DHT22;10195;50.868;4.382;2022-09-12T14:37:53;27.00;99.90
20070;DHT22;10195;50.868;4.382;2022-09-12T14:40:21;27.00;99.90
20070;DHT22;10195;50.868;4.382;2022-09-12T14:42:48;27.00;99.90
20070;DHT22;10195;50.868;4.382;2022-09-12T14:47:49;26.90;99.90
20070;DHT22;10195;50.868;4.382;2022-09-12T14:50:22;27.00;99.90
20070;DHT22;10195;50.868;4.382;2022-09-12T14:53:06;27.00;99.90
20070;DHT22;10195;50.868;4.382;2022-09-12T14:55:34;26.70;99.90
20070;DHT22;10195;50.868;4.382;2022-09-12T15:03:57;26.60;99.90
20070;DHT22;10195;50.868;4.382;2022-09-12T15:06:25;26.60;99.90
20070;DHT22;10195;50.868;4.382;2022-09-12T15:08:53;26.80;99.90
20070;DHT22;10195;50.868;4.382;2022-09-12T15:11:19;26.90;99.90
20070;DHT22;10195;50.868;4.382;2022-09-12T15:13:45;26.80;99.90
20070;DHT22;10195;50.868;4.382;2022-09-12T15:16:11;26.70;99.90
20070;DHT22;10195;50.868;4.382;2022-09-12T15:18:37;26.80;99.90
20070;DHT22;10195;50.868;4.382;2022-09-12T15:21:04;27.00;99.90
20070;DHT22;10195;50.868;4.382;2022-09-12T15:23:54;27.00;99.90
20070;DHT22;10195;50.868;4.382;2022-09-12T15:26:21;26.90;99.90
20070;DHT22;10195;50.868;4.382;2022-09-12T15:28:48;26.90;99.90
20070;DHT22;10195;50.868;4.382;2022-09-12T15:31:28;26.80;99.90
20070;DHT22;10195;50.868;4.382;2022-09-12T15:33:56;26.70;99.90
20070;DHT22;10195;50.868;4.382;2022-09-12T15:36:23;26.70;99.90
20070;DHT22;10195;50.868;4.382;2022-09-12T15:38:49;26.80;99.90
20070;DHT22;10195;50.868;4.382;2022-09-12T15:41:21;26.50;99.90
20070;DHT22;10195;50.868;4.382;2022-09-12T15:43:48;26.40;99.90
20070;DHT22;10195;50.868;4.382;2022-09-12T15:46:15;26.30;99.90
20070;DHT22;10195;50.868;4.382;2022-09-12T15:48:42;26.50;99.90
20070;DHT22;10195;50.868;4.382;2022-09-12T15:51:14;26.60;99.90
20070;DHT22;10195;50.868;4.382;2022-09-12T15:53:40;26.70;99.90
20070;DHT22;10195;50.868;4.382;2022-09-12T15:56:06;26.50;99.90
20070;DHT22;10195;50.868;4.382;2022-09-12T15:58:32;26.50;99.90
20070;DHT22;10195;50.868;4.382;2022-09-12T16:00:58;26.60;99.90
20070;DHT22;10195;50.868;4.382;2022-09-12T16:03:25;26.60;99.90
20070;DHT22;10195;50.868;4.382;2022-09-12T16:06:00;26.70;99.90
20070;DHT22;10195;50.868;4.382;2022-09-12T16:08:27;26.60;99.90
20070;DHT22;10195;50.868;4.382;2022-09-12T16:10:55;26.50;99.90
20070;DHT22;10195;50.868;4.382;2022-09-12T16:13:22;26.20;99.90
20070;DHT22;10195;50.868;4.382;2022-09-12T16:15:48;26.00;99.90
20070;DHT22;10195;50.868;4.382;2022-09-12T16:18:14;25.80;99.90
20070;DHT22;10195;50.868;4.382;2022-09-12T16:20:40;25.70;99.90
20070;DHT22;10195;50.868;4.382;2022-09-12T16:23:06;25.70;99.90
20070;DHT22;10195;50.868;4.382;2022-09-12T16:25:33;25.80;99.90
20070;DHT22;10195;50.868;4.382;2022-09-12T16:27:59;25.90;99.90
20070;DHT22;10195;50.868;4.382;2022-09-12T16:30:26;25.80;99.90
20070;DHT22;10195;50.868;4.382;2022-09-12T16:32:51;25.80;99.90
20070;DHT22;10195;50.868;4.382;2022-09-12T16:35:17;25.80;99.90
20070;DHT22;10195;50.868;4.382;2022-09-12T16:37:42;26.00;99.90
20070;DHT22;10195;50.868;4.382;2022-09-12T16:40:08;26.00;99.90
20070;DHT22;10195;50.868;4.382;2022-09-12T16:42:34;26.00;99.90
20070;DHT22;10195;50.868;4.382;2022-09-12T16:45:00;26.00;99.90
20070;DHT22;10195;50.868;4.382;2022-09-12T16:47:26;26.00;99.90
20070;DHT22;10195;50.868;4.382;2022-09-12T16:49:56;26.00;99.90
20070;DHT22;10195;50.868;4.382;2022-09-12T16:52:23;26.00;99.90
20070;DHT22;10195;50.868;4.382;2022-09-12T16:54:49;26.00;99.90
20070;DHT22;10195;50.868;4.382;2022-09-12T16:57:14;26.10;99.90
20070;DHT22;10195;50.868;4.382;2022-09-12T16:59:40;26.20;99.90
20070;DHT22;10195;50.868;4.382;2022-09-12T17:02:06;26.20;99.90
20070;DHT22;10195;50.868;4.382;2022-09-12T17:04:32;26.20;99.90
20070;DHT22;10195;50.868;4.382;2022-09-12T17:06:58;26.10;99.90
20070;DHT22;10195;50.868;4.382;2022-09-12T17:09:24;26.10;99.90
20070;DHT22;10195;50.868;4.382;2022-09-12T17:11:50;26.00;99.90
20070;DHT22;10195;50.868;4.382;2022-09-12T17:14:17;26.00;99.90
20070;DHT22;10195;50.868;4.382;2022-09-12T17:16:44;26.00;99.90
20070;DHT22;10195;50.868;4.382;2022-09-12T17:19:16;26.00;99.90
20070;DHT22;10195;50.868;4.382;2022-09-12T17:21:43;26.00;99.90
20070;DHT22;10195;50.868;4.382;2022-09-12T17:24:09;25.90;99.90
20070;DHT22;10195;50.868;4.382;2022-09-12T17:26:35;25.90;99.90
20070;DHT22;10195;50.868;4.382;2022-09-12T17:29:01;25.70;99.90
20070;DHT22;10195;50.868;4.382;2022-09-12T17:31:27;25.60;99.90
20070;DHT22;10195;50.868;4.382;2022-09-12T17:33:57;25.60;99.90
20070;DHT22;10195;50.868;4.382;2022-09-12T17:36:23;25.60;99.90
20070;DHT22;10195;50.868;4.382;2022-09-12T17:38:49;25.70;99.90
20070;DHT22;10195;50.868;4.382;2022-09-12T17:41:24;25.70;99.90
20070;DHT22;10195;50.868;4.382;2022-09-12T17:43:52;25.70;99.90
20070;DHT22;10195;50.868;4.382;2022-09-12T17:46:21;25.60;99.90
20070;DHT22;10195;50.868;4.382;2022-09-12T17:48:54;25.40;99.90
20070;DHT22;10195;50.868;4.382;2022-09-12T17:51:22;25.10;99.90
20070;DHT22;10195;50.868;4.382;2022-09-12T17:53:59;25.00;99.90
20070;DHT22;10195;50.868;4.382;2022-09-12T17:56:26;24.70;99.90
20070;DHT22;10195;50.868;4.382;2022-09-12T17:58:54;24.70;99.90
20070;DHT22;10195;50.868;4.382;2022-09-12T18:01:20;24.70;99.90
20070;DHT22;10195;50.868;4.382;2022-09-12T18:04:04;24.70;99.90
20070;DHT22;10195;50.868;4.382;2022-09-12T18:06:32;24.60;99.90
20070;DHT22;10195;50.868;4.382;2022-09-12T18:09:03;24.60;99.90
20070;DHT22;10195;50.868;4.382;2022-09-12T18:11:29;24.40;99.90
20070;DHT22;10195;50.868;4.382;2022-09-12T18:13:57;24.20;99.90
20070;DHT22;10195;50.868;4.382;2022-09-12T18:16:24;24.00;99.90
20070;DHT22;10195;50.868;4.382;2022-09-12T18:18:49;24.10;99.90